createdAt,value
2018-10-04T00:01:53.945Z,94.26
2018-10-04T00:22:34.134Z,93.91
2018-10-04T00:43:12.791Z,94.03
2018-10-04T01:03:51.739Z,94.01
2018-10-04T01:24:31.937Z,93.87
2018-10-04T01:45:15.189Z,94.27
2018-10-04T02:05:52.614Z,93.98
2018-10-04T02:26:31.875Z,94.09
2018-10-04T02:47:09.918Z,94.62
2018-10-04T03:07:48.257Z,94.81
2018-10-04T03:28:28.902Z,93.48
2018-10-04T03:49:05.865Z,93.13
2018-10-04T04:09:48.204Z,92.57
2018-10-04T04:30:29.635Z,92.62
2018-10-04T04:51:10.113Z,93.54
2018-10-04T05:11:50.003Z,94.07
2018-10-04T05:32:34.178Z,94.72
2018-10-04T05:53:14.733Z,95.03
2018-10-04T06:13:49.942Z,95.94
2018-10-04T06:34:27.055Z,97.13
2018-10-04T06:55:04.743Z,98.36
2018-10-04T07:15:50.124Z,99.77
2018-10-04T07:36:26.084Z,100.00
2018-10-04T07:57:06.271Z,100.00
2018-10-04T08:17:46.774Z,100.00
2018-10-04T08:38:26.953Z,100.00
2018-10-04T08:59:01.919Z,100.00
2018-10-04T09:19:44.584Z,100.00
2018-10-04T09:40:20.447Z,100.00
2018-10-04T10:01:05.226Z,99.74
2018-10-04T10:21:44.202Z,97.04
2018-10-04T10:42:22.547Z,91.86
2018-10-04T11:03:00.581Z,89.41
2018-10-04T11:23:38.927Z,88.54
2018-10-04T11:44:30.595Z,85.73
2018-10-04T12:05:10.011Z,83.13
2018-10-04T12:25:47.784Z,79.98
2018-10-04T12:46:26.383Z,79.36
2018-10-04T13:07:07.752Z,78.78
2018-10-04T13:27:45.617Z,78.26
2018-10-04T13:48:24.844Z,75.65
2018-10-04T14:09:03.198Z,68.70
2018-10-04T14:29:42.456Z,65.46
2018-10-04T14:50:21.738Z,66.80
2018-10-04T15:11:05.315Z,68.32
2018-10-04T15:31:46.415Z,69.11
2018-10-04T15:52:26.590Z,70.08
2018-10-04T16:13:07.343Z,74.22
2018-10-04T16:33:43.274Z,77.25
2018-10-04T16:54:26.535Z,79.48
2018-10-04T17:15:05.822Z,81.56
2018-10-04T17:35:49.122Z,83.33
2018-10-04T17:56:26.543Z,84.62
2018-10-04T18:17:09.865Z,86.40
2018-10-04T18:37:50.846Z,88.82
2018-10-04T18:58:31.036Z,90.00
2018-10-04T19:19:09.397Z,91.14
2018-10-04T19:39:47.071Z,91.58
2018-10-04T20:00:34.065Z,92.33
2018-10-04T20:21:12.097Z,92.66
2018-10-04T20:41:49.519Z,93.39
2018-10-04T21:02:24.787Z,92.77
2018-10-04T21:23:05.987Z,93.96
2018-10-04T21:43:45.167Z,94.16
2018-10-04T22:04:22.588Z,94.37
2018-10-04T22:25:01.852Z,94.21
2018-10-04T22:45:42.964Z,94.65
2018-10-04T23:06:22.537Z,95.04
2018-10-04T23:26:57.513Z,95.53
2018-10-04T23:47:39.837Z,94.43
